Time;durP1;ratioP1;P1;durP2;ratioP2;P2;SDS_P1;SDS_P2;PMS_P1;PMS_P2;Temp;Humidity;BMP_temperature;BMP_pressure;BME280_temperature;BME280_humidity;BME280_pressure;Samples;Min_cycle;Max_cycle;Signal;HPM_P1;HPM_P2
2022/03/11 07:01:04;;;;;;;28.70;18.23;;;;;;;1.43;50.10;100298.34;10308303;28;20046;-82
2022/03/11 07:06:07;;;;;;;27.90;17.85;;;;;;;1.63;49.83;100298.84;10316515;28;20057;-81
2022/03/11 07:11:09;;;;;;;27.80;17.35;;;;;;;1.61;49.45;100303.19;10318288;28;20085;-82
2022/03/11 07:16:12;;;;;;;26.83;17.27;;;;;;;1.85;48.92;100297.56;10299295;28;20054;-81
2022/03/11 07:21:14;;;;;;;26.55;17.05;;;;;;;2.03;48.20;100295.50;10314485;28;20101;-82
2022/03/11 07:26:15;;;;;;;27.50;16.83;;;;;;;2.25;47.69;100282.19;10316189;28;20137;-82
2022/03/11 07:31:17;;;;;;;26.00;17.38;;;;;;;2.33;47.12;100296.63;10317884;28;20518;-82
2022/03/11 07:36:19;;;;;;;27.02;17.67;;;;;;;2.44;46.83;100302.41;10317362;28;20054;-82
2022/03/11 07:41:21;;;;;;;29.10;16.65;;;;;;;2.77;46.43;100301.69;10300087;28;20141;-81
2022/03/11 07:46:23;;;;;;;24.10;15.48;;;;;;;2.97;46.08;100296.91;10317312;28;20129;-82
2022/03/11 07:51:25;;;;;;;24.85;15.77;;;;;;;3.32;45.34;100288.31;10316885;28;20055;-82
2022/03/11 07:56:27;;;;;;;21.83;13.13;;;;;;;3.78;43.62;100290.59;10316429;28;20158;-82
2022/03/11 08:01:29;;;;;;;21.00;12.93;;;;;;;4.34;42.30;100284.72;10296250;28;20419;-82
2022/03/11 08:06:31;;;;;;;19.38;12.73;;;;;;;4.80;40.22;100279.00;10314503;28;20062;-82
2022/03/11 08:11:33;;;;;;;18.20;12.32;;;;;;;5.28;40.17;100287.84;10316100;28;20125;-82
2022/03/11 08:16:35;;;;;;;18.67;12.18;;;;;;;5.50;38.89;100280.19;10314588;28;21146;-82
2022/03/11 08:21:37;;;;;;;17.40;12.30;;;;;;;5.65;38.20;100277.09;10316683;28;20054;-82
2022/03/11 08:26:38;;;;;;;17.00;11.80;;;;;;;5.81;37.83;100277.41;10316118;28;20101;-82
2022/03/11 08:31:40;;;;;;;19.38;12.82;;;;;;;5.86;37.60;100283.31;10316123;28;20058;-82
2022/03/11 08:36:43;;;;;;;18.05;12.27;;;;;;;6.11;36.25;100277.19;10315494;28;20050;-82
2022/03/11 08:41:45;;;;;;;27.73;12.55;;;;;;;6.20;36.65;100271.66;10315266;28;20055;-82
2022/03/11 08:46:46;;;;;;;19.60;12.63;;;;;;;6.39;36.11;100264.03;10314948;28;20058;-82
2022/03/11 08:51:48;;;;;;;18.33;12.57;;;;;;;6.62;36.52;100245.00;10315405;28;20137;-83
2022/03/11 08:56:53;;;;;;;19.55;12.52;;;;;;;6.71;35.21;100242.06;10315089;28;20141;-82
2022/03/11 09:01:55;;;;;;;18.10;12.07;;;;;;;6.64;33.74;100250.97;10295030;28;20464;-82
2022/03/11 09:06:57;;;;;;;25.30;12.43;;;;;;;6.90;34.79;100238.66;10313512;28;20439;-82
2022/03/11 09:12:05;;;;;;;19.20;12.27;;;;;;;6.94;34.50;100236.75;10297178;28;20057;-82
2022/03/11 09:17:07;;;;;;;19.02;12.38;;;;;;;7.20;34.61;100233.97;10314455;28;20085;-82
2022/03/11 09:22:23;;;;;;;18.40;12.27;;;;;;;7.15;32.78;100226.38;10308828;28;20059;-82
2022/03/11 09:27:31;;;;;;;20.65;12.63;;;;;;;7.44;33.26;100224.28;10294977;28;20054;-83
2022/03/11 09:33:08;;;;;;;19.45;12.32;;;;;;;7.55;32.60;100220.31;10309649;28;20086;-84
2022/03/11 09:38:11;;;;;;;19.10;11.95;;;;;;;7.56;33.37;100218.56;10312702;28;20058;-83
2022/03/11 09:43:14;;;;;;;19.13;12.68;;;;;;;7.97;32.76;100215.88;10310190;28;20767;-83
2022/03/11 09:48:17;;;;;;;16.80;11.75;;;;;;;7.94;32.94;100218.59;10312026;28;20149;-83
2022/03/11 09:53:22;;;;;;;18.73;12.38;;;;;;;8.06;32.56;100218.97;10311311;28;21010;-83
2022/03/11 09:58:50;;;;;;;21.00;12.27;;;;;;;7.98;31.99;100198.47;10291752;28;20129;-84
2022/03/11 10:03:52;;;;;;;16.83;10.90;;;;;;;8.10;32.47;100204.91;10274168;28;20460;-84
2022/03/11 10:08:55;;;;;;;18.92;12.18;;;;;;;8.29;32.00;100208.38;10292032;28;20161;-84
2022/03/11 10:14:06;;;;;;;19.73;11.50;;;;;;;8.44;31.86;100194.63;10287038;28;20054;-83
2022/03/11 10:19:13;;;;;;;17.13;11.55;;;;;;;8.54;31.05;100194.13;10294889;28;20141;-84
2022/03/11 10:24:18;;;;;;;19.60;11.18;;;;;;;8.74;31.47;100207.06;10299869;28;20109;-84
2022/03/11 10:29:32;;;;;;;16.70;11.90;;;;;;;8.92;30.26;100199.25;10300630;28;20488;-84
2022/03/11 10:34:36;;;;;;;19.10;11.38;;;;;;;8.88;31.42;100192.50;10296233;28;20086;-85
2022/03/11 10:39:46;;;;;;;18.67;12.02;;;;;;;8.77;31.04;100195.66;10297274;28;20058;-84
2022/03/11 10:45:00;;;;;;;16.57;11.67;;;;;;;8.63;30.38;100190.22;10290646;28;20053;-84
2022/03/11 10:50:07;;;;;;;17.63;12.20;;;;;;;8.51;30.51;100169.97;10268335;28;20056;-84
2022/03/11 10:55:21;;;;;;;17.27;11.75;;;;;;;8.70;31.46;100170.78;10291868;28;20073;-84
2022/03/11 11:00:28;;;;;;;17.40;11.50;;;;;;;8.73;31.42;100165.41;10308373;28;20523;-84
2022/03/11 11:05:32;;;;;;;19.38;11.98;;;;;;;8.91;31.60;100164.53;10316831;28;20149;-84
2022/03/11 11:10:38;;;;;;;18.60;11.40;;;;;;;8.78;31.81;100159.06;10314889;28;20137;-84
2022/03/11 11:15:41;;;;;;;17.58;11.70;;;;;;;8.79;31.88;100146.88;10301460;28;20054;-85
2022/03/11 11:20:56;;;;;;;17.55;11.52;;;;;;;8.82;30.49;100159.75;10298342;28;20432;-84
2022/03/11 11:25:59;;;;;;;16.48;10.93;;;;;;;9.00;31.12;100135.38;10316527;28;20841;-84
2022/03/11 11:31:05;;;;;;;18.27;11.68;;;;;;;9.14;30.74;100127.69;10314857;28;20056;-84
2022/03/11 11:36:07;;;;;;;18.45;11.60;;;;;;;9.35;30.65;100130.97;10314403;28;20061;-84
2022/03/11 11:41:26;;;;;;;15.27;11.18;;;;;;;9.25;30.70;100114.94;10312382;28;20132;-84
2022/03/11 11:46:37;;;;;;;18.50;11.40;;;;;;;9.15;30.78;100111.13;10315467;28;20112;-85
2022/03/11 11:51:40;;;;;;;20.23;11.50;;;;;;;9.37;31.25;100095.19;10315170;28;20500;-85
2022/03/11 11:57:02;;;;;;;18.85;11.68;;;;;;;9.48;30.90;100096.31;10296440;28;20068;-85
2022/03/11 12:02:31;;;;;;;18.35;10.88;;;;;;;9.57;30.67;100077.56;10315091;28;20058;-85
2022/03/11 12:07:49;;;;;;;17.08;10.98;;;;;;;9.51;30.36;100066.59;10310705;28;20101;-85
2022/03/11 12:13:00;;;;;;;17.55;11.10;;;;;;;9.82;29.72;100057.97;10297145;28;20545;-85
2022/03/11 12:18:02;;;;;;;16.13;11.10;;;;;;;10.01;29.58;100061.28;10314022;28;20109;-84
2022/03/11 12:23:32;;;;;;;17.65;11.40;;;;;;;9.92;29.39;100056.56;10296879;28;21962;-85
2022/03/11 12:28:44;;;;;;;15.93;10.50;;;;;;;10.19;30.01;100055.88;10308016;28;20137;-84
2022/03/11 12:33:49;;;;;;;15.35;10.65;;;;;;;10.43;30.02;100053.63;10291242;28;20514;-85
2022/03/11 12:38:52;;;;;;;17.90;11.45;;;;;;;10.64;29.06;100038.47;10296677;28;20141;-85
2022/03/11 12:43:59;;;;;;;17.98;11.30;;;;;;;10.70;29.32;100036.38;10313704;28;20058;-85
2022/03/11 12:49:03;;;;;;;16.27;11.05;;;;;;;10.93;28.38;100022.75;10296101;28;20042;-85
2022/03/11 12:54:15;;;;;;;15.35;10.93;;;;;;;10.74;28.83;100023.94;10312365;28;20078;-85
2022/03/11 12:59:20;;;;;;;14.60;10.70;;;;;;;10.78;29.01;100018.44;10291168;28;20129;-85
2022/03/11 13:04:23;;;;;;;18.13;11.02;;;;;;;11.02;28.64;100003.88;10311846;28;20145;-85
2022/03/11 13:09:48;;;;;;;15.15;10.45;;;;;;;11.09;28.67;99991.31;10296258;28;20066;-85
2022/03/11 13:15:16;;;;;;;18.92;10.57;;;;;;;11.17;29.43;99981.22;10312455;28;20141;-85
2022/03/11 13:20:44;;;;;;;14.25;10.80;;;;;;;11.13;28.48;99977.91;10312670;28;20101;-86
2022/03/11 13:25:51;;;;;;;15.32;10.57;;;;;;;11.23;28.02;99973.78;10309452;28;20560;-84
2022/03/11 13:31:16;;;;;;;15.95;11.48;;;;;;;11.20;28.33;99963.53;10312094;28;20136;-84
2022/03/11 13:36:24;;;;;;;15.45;10.52;;;;;;;11.48;28.71;99946.94;10311090;28;20802;-85
2022/03/11 13:41:35;;;;;;;16.95;10.52;;;;;;;11.55;26.83;99955.25;10312187;28;20129;-86
2022/03/11 13:46:39;;;;;;;16.60;10.85;;;;;;;11.67;28.44;99941.38;10311351;28;20125;-86
2022/03/11 13:51:53;;;;;;;16.73;10.05;;;;;;;11.63;26.91;99939.88;10311124;28;20069;-86
2022/03/11 13:56:57;;;;;;;14.90;10.20;;;;;;;11.76;27.97;99938.16;10320861;28;20137;-85
2022/03/11 14:02:13;;;;;;;17.60;10.48;;;;;;;11.76;27.21;99930.31;10324177;28;20046;-85
2022/03/11 14:07:18;;;;;;;14.98;10.18;;;;;;;11.65;27.24;99933.63;10321501;28;20057;-85
2022/03/11 14:12:25;;;;;;;15.15;9.73;;;;;;;11.70;26.75;99928.91;10321081;28;20054;-84
2022/03/11 14:17:33;;;;;;;15.40;9.93;;;;;;;11.66;26.71;99919.56;10310322;28;20054;-85
2022/03/11 14:22:36;;;;;;;12.00;9.45;;;;;;;11.74;26.95;99916.47;10321151;28;20146;-85
2022/03/11 14:27:38;;;;;;;15.43;9.70;;;;;;;11.82;27.21;99908.94;10318636;28;20050;-84
2022/03/11 14:32:39;;;;;;;16.30;10.00;;;;;;;11.73;26.75;99910.38;10317381;28;20656;-85
2022/03/11 14:37:41;;;;;;;12.60;9.10;;;;;;;11.87;26.83;99904.22;10319454;28;20413;-85
2022/03/11 14:42:46;;;;;;;14.40;9.38;;;;;;;11.92;27.19;99903.00;10317355;28;20061;-85
2022/03/11 14:47:50;;;;;;;17.15;9.55;;;;;;;12.12;26.46;99892.06;10310254;28;20050;-85
2022/03/11 14:52:56;;;;;;;13.95;9.85;;;;;;;11.97;26.51;99884.34;10299741;28;20060;-85
2022/03/11 14:57:58;;;;;;;13.35;9.73;;;;;;;11.98;27.19;99872.94;10320234;28;20551;-85
2022/03/11 15:03:05;;;;;;;15.63;9.52;;;;;;;12.03;27.51;99881.31;10321532;28;20149;-84
2022/03/11 15:08:10;;;;;;;12.38;9.13;;;;;;;11.91;27.38;99874.25;10317635;28;20054;-85
2022/03/11 15:13:12;;;;;;;12.85;9.02;;;;;;;11.91;26.96;99875.13;10302871;28;20072;-84
2022/03/11 15:18:14;;;;;;;16.92;9.75;;;;;;;11.90;26.19;99862.97;10299409;28;20153;-85
2022/03/11 15:23:15;;;;;;;14.70;9.77;;;;;;;11.88;26.59;99866.63;10313704;28;20054;-84
2022/03/11 15:28:18;;;;;;;14.70;9.88;;;;;;;11.85;27.21;99861.56;10318159;28;20085;-85
2022/03/11 15:33:20;;;;;;;15.07;9.43;;;;;;;11.86;27.22;99850.16;10318416;28;20060;-85
2022/03/11 15:38:22;;;;;;;13.15;9.35;;;;;;;11.91;26.87;99848.06;10305616;28;20162;-85
2022/03/11 15:43:23;;;;;;;14.25;9.48;;;;;;;11.77;26.45;99854.22;10317625;28;20169;-85
2022/03/11 15:48:25;;;;;;;18.90;9.88;;;;;;;11.67;27.20;99858.38;10299298;28;20050;-85
2022/03/11 15:53:27;;;;;;;14.35;9.57;;;;;;;11.72;27.48;99860.72;10317091;28;20157;-85
2022/03/11 15:58:29;;;;;;;13.85;10.00;;;;;;;11.71;26.87;99862.47;10322869;28;20081;-85
2022/03/11 16:03:30;;;;;;;15.30;9.38;;;;;;;11.73;26.65;99865.00;10318347;28;20057;-84
2022/03/11 16:08:32;;;;;;;14.35;8.85;;;;;;;11.60;26.49;99867.56;10318004;28;20042;-85
2022/03/11 16:13:34;;;;;;;14.35;9.15;;;;;;;11.60;27.12;99869.38;10316156;28;20112;-85
2022/03/11 16:18:36;;;;;;;17.17;9.48;;;;;;;11.44;27.12;99866.88;10315639;28;20081;-85
2022/03/11 16:23:39;;;;;;;15.63;9.40;;;;;;;11.17;27.11;99869.47;10315714;28;20058;-85
2022/03/11 16:28:40;;;;;;;16.00;9.32;;;;;;;10.86;27.48;99874.94;10310353;28;20105;-85
2022/03/11 16:33:52;;;;;;;12.82;9.57;;;;;;;10.54;28.49;99876.06;10311260;28;20069;-85
2022/03/11 16:38:54;;;;;;;13.20;9.07;;;;;;;10.18;28.20;99881.69;10294083;28;20567;-85
2022/03/11 16:43:56;;;;;;;14.55;9.50;;;;;;;9.97;29.40;99882.94;10314669;28;20089;-85
2022/03/11 16:48:57;;;;;;;16.90;10.15;;;;;;;9.71;29.83;99888.00;10314378;28;20061;-85
2022/03/11 16:54:00;;;;;;;16.00;9.70;;;;;;;9.44;29.61;99888.56;10312720;28;20085;-85
2022/03/11 16:59:02;;;;;;;19.55;10.02;;;;;;;9.37;30.40;99895.06;10311618;28;20058;-84
2022/03/11 17:04:09;;;;;;;13.88;9.55;;;;;;;9.12;30.67;99897.31;10310633;28;20080;-85
2022/03/11 17:09:12;;;;;;;13.98;9.85;;;;;;;8.93;30.86;99907.09;10310328;28;20455;-84
2022/03/11 17:14:14;;;;;;;16.63;9.57;;;;;;;8.84;30.74;99905.78;10313009;28;20050;-85
2022/03/11 17:19:16;;;;;;;19.67;9.52;;;;;;;8.75;30.71;99900.22;10312434;28;20129;-84
2022/03/11 17:24:18;;;;;;;15.95;9.77;;;;;;;8.64;30.51;99906.00;10312712;28;20483;-84
2022/03/11 17:29:20;;;;;;;16.80;9.75;;;;;;;8.63;30.57;99914.72;10312945;28;20057;-85
2022/03/11 17:34:22;;;;;;;16.30;9.65;;;;;;;8.55;31.44;99916.91;10295109;28;20137;-85
2022/03/11 17:39:24;;;;;;;18.05;9.02;;;;;;;8.42;30.99;99915.84;10294343;28;20223;-86
2022/03/11 17:44:25;;;;;;;16.58;9.88;;;;;;;8.36;31.09;99915.31;10293065;28;20158;-86
2022/03/11 17:49:28;;;;;;;15.15;10.95;;;;;;;8.28;31.17;99914.88;10310253;28;20492;-85
2022/03/11 17:54:31;;;;;;;18.95;11.77;;;;;;;8.15;31.62;99916.41;10310769;28;20047;-85
2022/03/11 17:59:33;;;;;;;16.40;10.48;;;;;;;8.13;32.99;99931.25;10312726;28;20070;-86
2022/03/11 18:04:35;;;;;;;15.68;11.05;;;;;;;8.00;32.42;99934.44;10312157;28;20133;-85
2022/03/11 18:09:38;;;;;;;23.15;13.43;;;;;;;7.82;32.38;99929.28;10313398;28;20129;-85
2022/03/11 18:14:40;;;;;;;21.52;11.93;;;;;;;7.67;33.32;99938.66;10313476;28;20141;-86
2022/03/11 18:19:41;;;;;;;18.55;11.70;;;;;;;7.57;33.28;99950.44;10313430;28;20140;-86
2022/03/11 18:24:43;;;;;;;18.27;12.05;;;;;;;7.47;33.76;99937.94;10312495;28;20150;-86
2022/03/11 18:29:45;;;;;;;20.50;12.63;;;;;;;7.50;33.61;99932.56;10312361;28;20057;-86
2022/03/11 18:34:47;;;;;;;17.42;11.55;;;;;;;7.43;33.64;99932.03;10312733;28;20133;-86
2022/03/11 18:39:48;;;;;;;26.48;11.48;;;;;;;7.31;34.18;99936.94;10313057;28;20148;-86
2022/03/11 18:44:50;;;;;;;16.65;11.25;;;;;;;7.23;34.54;99944.25;10320132;28;20096;-86
2022/03/11 18:49:52;;;;;;;18.10;11.02;;;;;;;7.16;34.76;99936.75;10301562;28;20086;-86
2022/03/11 18:54:53;;;;;;;18.50;11.00;;;;;;;7.16;34.94;99946.31;10301479;28;20054;-83
2022/03/11 18:59:57;;;;;;;17.23;12.20;;;;;;;7.08;34.99;99954.44;10317916;28;20720;-84
2022/03/11 19:04:59;;;;;;;20.80;12.02;;;;;;;6.99;35.27;99952.28;10318359;28;20097;-83
2022/03/11 19:10:02;;;;;;;24.63;12.43;;;;;;;6.90;34.78;99951.81;10313408;28;20086;-83
2022/03/11 19:15:05;;;;;;;23.65;13.75;;;;;;;6.77;35.07;99950.69;10318715;28;20137;-83
2022/03/11 19:20:07;;;;;;;22.13;13.77;;;;;;;6.73;35.47;99952.59;10318295;28;20054;-83
2022/03/11 19:25:10;;;;;;;18.70;12.25;;;;;;;6.68;36.10;99956.28;10317007;28;20105;-83
2022/03/11 19:30:12;;;;;;;22.77;13.10;;;;;;;6.64;35.88;99962.53;10312175;28;20483;-83
2022/03/11 19:35:17;;;;;;;19.52;12.48;;;;;;;6.49;35.83;99963.19;10293685;28;20120;-83
2022/03/11 19:40:22;;;;;;;21.55;13.23;;;;;;;6.32;36.27;99969.94;10312184;28;20078;-83
2022/03/11 19:45:24;;;;;;;22.23;12.75;;;;;;;6.27;36.35;99969.28;10317575;28;20054;-83
2022/03/11 19:50:27;;;;;;;17.23;11.38;;;;;;;6.23;36.33;99972.03;10316391;28;20081;-83
2022/03/11 19:55:29;;;;;;;16.80;11.07;;;;;;;6.08;36.52;99976.09;10315381;28;20061;-83
2022/03/11 20:00:32;;;;;;;29.02;12.38;;;;;;;5.97;36.26;99980.88;10315727;28;20137;-83
2022/03/11 20:05:34;;;;;;;19.08;11.43;;;;;;;5.94;35.86;99978.41;10297059;28;20056;-83
2022/03/11 20:10:38;;;;;;;21.70;11.43;;;;;;;5.94;35.82;99988.78;10314886;28;20161;-83
2022/03/11 20:15:41;;;;;;;20.20;10.95;;;;;;;5.88;36.20;100002.00;10296726;28;20054;-84
2022/03/11 20:20:44;;;;;;;17.17;10.52;;;;;;;5.81;36.29;99995.38;10315860;28;20136;-83
2022/03/11 20:25:45;;;;;;;16.35;8.98;;;;;;;5.65;34.52;99996.03;10314516;28;20136;-84
2022/03/11 20:30:48;;;;;;;13.73;8.13;;;;;;;5.80;33.93;100004.06;10314636;28;20077;-84
2022/03/11 20:35:49;;;;;;;13.68;8.45;;;;;;;5.83;33.65;100005.69;10296712;28;20082;-84
2022/03/11 20:40:51;;;;;;;17.08;8.68;;;;;;;5.83;33.45;100016.94;10314247;28;20052;-84
2022/03/11 20:45:53;;;;;;;15.68;9.63;;;;;;;5.74;34.45;99999.09;10312257;28;20113;-84
2022/03/11 20:50:56;;;;;;;20.58;9.65;;;;;;;5.62;34.60;100015.16;10314807;28;20078;-84
2022/03/11 20:55:58;;;;;;;17.35;10.07;;;;;;;5.55;34.85;100016.31;10313582;28;20516;-84
2022/03/11 21:00:59;;;;;;;17.75;11.15;;;;;;;5.45;35.00;100023.56;10313890;28;20058;-84
2022/03/11 21:06:02;;;;;;;16.73;10.35;;;;;;;5.37;34.71;100011.81;10295727;28;20645;-84
2022/03/11 21:11:06;;;;;;;16.92;9.88;;;;;;;5.28;35.20;100022.50;10314492;28;20116;-83
2022/03/11 21:16:09;;;;;;;15.88;9.23;;;;;;;5.17;35.78;100016.84;10295220;28;20150;-84
2022/03/11 21:21:18;;;;;;;15.27;9.13;;;;;;;5.15;34.63;100023.84;10296134;28;20439;-84
2022/03/11 21:26:20;;;;;;;16.73;10.15;;;;;;;5.31;35.12;100018.06;10313437;28;20133;-84
2022/03/11 21:31:22;;;;;;;16.50;10.38;;;;;;;5.20;35.73;100025.41;10295794;28;20052;-84
2022/03/11 21:36:24;;;;;;;18.73;10.07;;;;;;;5.16;35.29;100028.16;10312733;28;20120;-84
2022/03/11 21:41:29;;;;;;;16.10;9.90;;;;;;;5.21;35.90;100026.22;10311646;28;20046;-84
2022/03/11 21:46:32;;;;;;;18.08;9.80;;;;;;;5.22;35.22;100028.78;10311627;28;20061;-83
2022/03/11 21:51:35;;;;;;;16.17;9.98;;;;;;;5.16;35.77;100025.56;10311468;28;20659;-83
2022/03/11 21:56:40;;;;;;;15.27;9.55;;;;;;;5.11;36.20;100032.63;10293018;28;20094;-84
2022/03/11 22:01:42;;;;;;;21.05;12.55;;;;;;;5.11;35.61;100024.84;10312034;28;20134;-84
2022/03/11 22:06:44;;;;;;;16.13;10.07;;;;;;;5.03;35.47;100032.91;10312280;28;20062;-83
2022/03/11 22:11:47;;;;;;;16.25;8.90;;;;;;;5.17;34.25;100016.84;10294019;28;20389;-84
2022/03/11 22:16:49;;;;;;;18.30;8.32;;;;;;;5.11;33.81;100014.50;10316361;28;20160;-84
2022/03/11 22:21:52;;;;;;;16.58;9.00;;;;;;;5.27;34.31;100018.22;10319914;28;20157;-83
2022/03/11 22:26:54;;;;;;;13.45;8.02;;;;;;;5.28;33.23;100006.94;10319927;28;20050;-83
2022/03/11 22:31:58;;;;;;;15.68;8.43;;;;;;;5.29;33.30;100001.69;10302056;28;20054;-83
2022/03/11 22:37:01;;;;;;;11.90;7.93;;;;;;;5.27;33.06;100011.28;10316556;28;20062;-83
2022/03/11 22:42:03;;;;;;;15.55;7.55;;;;;;;5.33;32.89;100012.84;10319245;28;20892;-83
2022/03/11 22:47:07;;;;;;;11.98;7.28;;;;;;;5.37;33.45;100017.81;10317996;28;20057;-84
2022/03/11 22:52:09;;;;;;;12.73;7.70;;;;;;;5.37;33.55;100027.38;10318491;28;20060;-83
2022/03/11 22:57:11;;;;;;;11.18;7.70;;;;;;;5.30;34.42;100023.31;10317693;28;20062;-83
2022/03/11 23:12:53;;;;;;;16.85;7.47;;;;;;;5.06;34.49;100031.97;10318565;28;20134;-84
2022/03/11 23:17:55;;;;;;;12.00;7.93;;;;;;;5.11;34.69;100041.25;10310730;28;20575;-84
2022/03/11 23:22:58;;;;;;;13.48;7.40;;;;;;;5.08;34.84;100035.34;10314272;28;20054;-84
2022/03/11 23:28:00;;;;;;;12.65;7.43;;;;;;;5.04;34.89;100047.59;10316120;28;20054;-83
2022/03/11 23:33:09;;;;;;;11.65;7.85;;;;;;;5.02;35.62;100056.31;10316259;28;20159;-84
2022/03/11 23:38:12;;;;;;;13.50;8.60;;;;;;;4.91;35.50;100064.44;10297447;28;20141;-84
2022/03/11 23:43:14;;;;;;;12.90;7.55;;;;;;;4.84;35.64;100059.53;10299571;28;20077;-84
2022/03/11 23:48:17;;;;;;;12.25;7.63;;;;;;;4.62;35.82;100054.22;10297078;28;20500;-84
2022/03/11 23:53:19;;;;;;;13.25;7.82;;;;;;;4.60;35.77;100056.88;10315775;28;20052;-83
2022/03/11 23:58:21;;;;;;;19.10;8.23;;;;;;;4.65;36.15;100060.16;10315508;28;20137;-84
